Abbotsford International Airport

Airport
ICAO code: 
CYXX
IATA Code: 
YXX
Summary
ICAO Region: 
NAM
Territory: 
Location: 
Abbotsford, British Columbia
Serving: 
Abbotsford
Elevation: 
194 ft
Coordinates: 
Aerial View: 
49° 1' 31.001" N, 122° 21' 47.999" W
Airport BS: 
Bird Strike
Airport WX: 
Fog
Metar
Observation
CYXX 011335Z 18013G19KT 10SM SCT038 OVC110 13/10 A3009 RMK SC4AC4 SLP193
Station
Abbotsford, B. C.
Date/Time
2021-12-01 13:35:00
Wind direction
180°
Wind speed
13 kts
Lowest cloud amount
scattered clouds
Temperature
13°C
Dew point
10°C
Humidity
82%
Weather condition
n/a

Description

Abbotsford International Airport is located near Abbotsford, British Columbia, Canada.

Climatology

Temperate Marine climate/Oceanic climate (Köppen climate classification Cfb). Moderately cool summer and comparatively warm winter.

Runways

Designator Length Width Surface Rops
01L/19R 457 30 GRS No/No
1/19 1624 61 ASP Yes/Yes
7/25 2926 61 PEM Yes/Yes
Airport map: 
Aerial View: 

SKYbrary Partners:

Safety knowledge contributed by: